Time;durP1;ratioP1;P1;durP2;ratioP2;P2;SDS_P1;SDS_P2;PMS_P1;PMS_P2;Temp;Humidity;BMP_temperature;BMP_pressure;BME280_temperature;BME280_humidity;BME280_pressure;Samples;Min_cycle;Max_cycle;Signal;HPM_P1;HPM_P2
2022/04/10 00:01:41;;;;;;;24.98;8.68;;;;;;;5.56;79.47;100059.69;10377254;28;20527;-79
2022/04/10 00:06:42;;;;;;;23.95;8.80;;;;;;;6.03;80.10;100160.75;10377097;28;20050;-79
2022/04/10 00:11:42;;;;;;;28.13;10.75;;;;;;;5.83;79.96;100154.63;10375887;28;20034;-79
2022/04/10 00:16:43;;;;;;;19.30;10.45;;;;;;;5.58;80.57;100119.19;10375661;28;20046;-79
2022/04/10 00:21:45;;;;;;;18.50;8.70;;;;;;;5.35;80.88;100105.47;10375428;28;20073;-79
2022/04/10 00:26:46;;;;;;;14.68;7.18;;;;;;;5.46;80.42;100151.94;10375186;28;20073;-79
2022/04/10 00:31:47;;;;;;;12.32;7.20;;;;;;;5.46;81.24;100165.94;10375423;28;20464;-79
2022/04/10 00:36:48;;;;;;;16.77;8.00;;;;;;;5.37;80.24;100169.41;10374732;28;20042;-79
2022/04/10 00:41:49;;;;;;;16.05;8.10;;;;;;;5.28;80.68;100167.59;10376011;28;20041;-79
2022/04/10 00:46:50;;;;;;;24.98;10.02;;;;;;;3.92;80.90;99941.19;10375009;28;20068;-79
2022/04/10 00:51:53;;;;;;;16.85;9.43;;;;;;;5.36;83.22;100169.56;10375275;28;20080;-79
2022/04/10 00:56:55;;;;;;;15.43;9.10;;;;;;;5.52;83.25;100190.88;10356194;28;20418;-79
2022/04/10 01:01:56;;;;;;;16.35;8.90;;;;;;;5.55;83.15;100187.97;10373722;28;20103;-79
2022/04/10 01:06:59;;;;;;;18.50;9.88;;;;;;;5.43;83.39;100170.66;10373668;28;20041;-79
2022/04/10 01:12:01;;;;;;;16.45;9.00;;;;;;;5.22;81.67;100141.81;10374505;28;20041;-79
2022/04/10 01:17:02;;;;;;;17.98;10.40;;;;;;;4.69;81.88;100069.31;10356329;28;20042;-79
2022/04/10 01:22:05;;;;;;;22.98;11.07;;;;;;;4.67;82.90;100057.28;10374220;28;20052;-79
2022/04/10 01:27:07;;;;;;;27.87;10.77;;;;;;;5.25;82.21;100191.56;10373771;28;20042;-79
2022/04/10 01:32:08;;;;;;;19.85;10.63;;;;;;;5.13;82.35;100190.88;10373302;28;20041;-79
2022/04/10 01:37:11;;;;;;;33.40;12.00;;;;;;;5.07;82.69;100191.41;10373054;28;20042;-79
2022/04/10 01:42:12;;;;;;;20.42;9.63;;;;;;;4.12;82.77;100058.53;10373545;28;20041;-79
2022/04/10 01:47:14;;;;;;;20.33;9.90;;;;;;;3.98;83.00;100056.28;10372653;28;20034;-79
2022/04/10 01:52:14;;;;;;;14.05;9.30;;;;;;;4.89;83.41;100199.13;10373321;28;20091;-79
2022/04/10 01:57:15;;;;;;;19.58;10.60;;;;;;;4.37;82.74;100126.56;10371781;28;20597;-80
2022/04/10 02:02:16;;;;;;;15.85;10.27;;;;;;;4.29;83.53;100106.19;10372538;28;20058;-79
2022/04/10 02:07:17;;;;;;;25.88;9.88;;;;;;;4.33;83.65;100092.63;10371936;28;20046;-79
2022/04/10 02:12:18;;;;;;;23.05;10.70;;;;;;;3.60;83.52;99984.22;10372358;28;20076;-79
2022/04/10 02:17:18;;;;;;;27.98;10.75;;;;;;;4.78;83.20;100207.13;10372087;28;20078;-80
2022/04/10 02:22:19;;;;;;;24.10;10.65;;;;;;;4.83;83.63;100191.78;10372703;28;20042;-80
2022/04/10 02:27:20;;;;;;;19.90;9.13;;;;;;;4.68;83.25;100195.75;10371832;28;20038;-79
2022/04/10 02:32:21;;;;;;;18.30;9.93;;;;;;;4.41;83.35;100157.72;10372536;28;20510;-79
2022/04/10 02:37:22;;;;;;;13.98;8.63;;;;;;;3.97;83.59;100083.50;10369596;28;20046;-78
2022/04/10 02:42:23;;;;;;;17.38;9.15;;;;;;;4.38;82.92;100130.88;10351228;28;20488;-79
2022/04/10 02:47:24;;;;;;;15.48;8.40;;;;;;;4.70;83.23;100184.13;10365928;28;20414;-80
2022/04/10 02:52:26;;;;;;;15.93;8.68;;;;;;;5.31;82.77;100198.09;10364576;28;20042;-79
2022/04/10 02:57:27;;;;;;;23.33;8.88;;;;;;;5.82;81.43;100191.69;10364388;28;20058;-80
2022/04/10 03:02:27;;;;;;;19.92;10.25;;;;;;;5.93;80.09;100147.59;10359543;28;20046;-79
2022/04/10 03:07:28;;;;;;;20.40;9.95;;;;;;;6.53;78.89;100183.34;10348209;28;20093;-80
2022/04/10 03:12:29;;;;;;;29.33;11.25;;;;;;;6.18;79.31;100069.63;10312872;28;20038;-80
2022/04/10 03:17:30;;;;;;;20.15;9.43;;;;;;;6.74;78.80;100107.38;10330030;28;20058;-80
2022/04/10 03:22:30;;;;;;;30.30;11.90;;;;;;;6.66;78.77;100037.81;10332707;28;20117;-80
2022/04/10 03:27:31;;;;;;;16.30;10.30;;;;;;;7.62;79.07;100120.69;10336906;28;20665;-80
2022/04/10 03:32:32;;;;;;;25.45;10.05;;;;;;;9.04;78.26;100220.88;10336594;28;20045;-84
2022/04/10 03:37:33;;;;;;;30.95;11.27;;;;;;;9.66;76.52;100170.06;10336417;28;20042;-80
2022/04/10 03:42:41;;;;;;;20.17;10.85;;;;;;;10.78;74.10;100192.25;10355064;28;20061;-80
2022/04/10 03:47:41;;;;;;;20.92;10.98;;;;;;;11.20;73.44;100133.38;10363108;28;20042;-81
2022/04/10 03:52:43;;;;;;;21.75;11.05;;;;;;;11.63;71.71;100077.81;10370831;28;20061;-81
2022/04/10 03:57:44;;;;;;;23.73;11.45;;;;;;;13.04;69.79;100191.41;10356361;28;20564;-82
2022/04/10 04:02:45;;;;;;;20.33;12.52;;;;;;;13.55;68.50;100185.19;10351213;28;20049;-80
2022/04/10 04:07:46;;;;;;;24.70;13.45;;;;;;;13.86;66.54;100166.16;10349660;28;20050;-81
2022/04/10 04:12:47;;;;;;;18.95;12.20;;;;;;;14.84;65.14;100231.16;10348224;28;20081;-81
2022/04/10 04:17:48;;;;;;;39.97;13.77;;;;;;;15.27;63.42;100220.19;10351284;28;20474;-82
2022/04/10 04:22:49;;;;;;;24.73;14.32;;;;;;;14.77;62.52;100134.81;10350512;28;20046;-79
2022/04/10 04:27:50;;;;;;;22.40;12.63;;;;;;;14.70;62.18;100093.88;10348525;28;20049;-79
2022/04/10 04:32:51;;;;;;;17.65;10.45;;;;;;;15.71;61.34;100194.75;10349387;28;20057;-78
2022/04/10 04:37:52;;;;;;;17.70;11.43;;;;;;;15.71;60.21;100192.09;10347459;28;20049;-80
2022/04/10 04:42:53;;;;;;;21.60;10.68;;;;;;;15.95;59.83;100212.91;10342876;28;20042;-80
2022/04/10 04:47:54;;;;;;;20.23;11.43;;;;;;;15.01;58.81;100085.31;10343425;28;20046;-79
2022/04/10 04:52:55;;;;;;;19.92;9.70;;;;;;;14.93;59.51;100132.84;10338083;28;20608;-80
2022/04/10 04:57:55;;;;;;;21.00;11.43;;;;;;;14.04;59.82;100027.59;10330786;28;20064;-79
2022/04/10 05:02:56;;;;;;;22.13;12.23;;;;;;;14.69;60.37;100199.19;10347445;28;20057;-81
2022/04/10 05:07:57;;;;;;;32.55;18.58;;;;;;;14.59;61.19;100188.00;10349312;28;20042;-81
2022/04/10 05:13:05;;;;;;;29.17;20.88;;;;;;;14.58;61.31;100171.16;10347247;28;20049;-83
2022/04/10 05:18:09;;;;;;;22.00;12.52;;;;;;;15.21;60.86;100191.56;10330236;28;20051;-86
2022/04/10 05:23:10;;;;;;;19.00;9.93;;;;;;;15.43;60.37;100187.69;10348534;28;20042;-82
2022/04/10 05:28:11;;;;;;;13.90;7.95;;;;;;;15.73;60.03;100192.69;10347886;28;20081;-83
2022/04/10 05:33:12;;;;;;;13.52;9.05;;;;;;;14.55;60.31;99965.72;10347527;28;20041;-85
2022/04/10 05:38:13;;;;;;;17.17;9.32;;;;;;;16.23;60.43;100186.91;10348666;28;20050;-82
2022/04/10 05:43:14;;;;;;;12.93;6.82;;;;;;;15.51;59.85;100028.72;10347032;28;20136;-85
2022/04/10 05:48:15;;;;;;;17.42;7.85;;;;;;;15.94;59.49;100055.03;10347474;28;20046;-85
2022/04/10 05:53:16;;;;;;;11.18;7.18;;;;;;;16.78;58.96;100123.00;10346686;28;20069;-80
2022/04/10 05:58:17;;;;;;;9.00;4.85;;;;;;;17.14;57.83;100132.31;10341563;28;20053;-79
2022/04/10 06:03:18;;;;;;;18.10;4.43;;;;;;;17.45;57.02;100126.13;10344458;28;20743;-82
2022/04/10 06:08:19;;;;;;;13.82;4.68;;;;;;;17.95;55.26;100169.13;10327970;28;20171;-80
2022/04/10 06:13:21;;;;;;;11.82;4.10;;;;;;;17.46;54.95;100064.13;10346613;28;20049;-82
2022/04/10 06:18:22;;;;;;;12.20;4.38;;;;;;;18.28;54.14;100159.91;10348128;28;20152;-84
2022/04/10 06:23:23;;;;;;;11.77;4.70;;;;;;;18.31;53.28;100124.50;10345365;28;20046;-81
2022/04/10 06:28:24;;;;;;;12.63;4.93;;;;;;;18.09;52.94;100020.09;10343933;28;20043;-79
2022/04/10 06:33:25;;;;;;;11.75;4.75;;;;;;;18.21;52.74;99980.66;10341329;28;20065;-85
2022/04/10 06:38:26;;;;;;;11.32;3.25;;;;;;;18.47;51.33;99997.50;10331032;28;20042;-82
2022/04/10 06:43:27;;;;;;;8.70;3.45;;;;;;;18.71;50.28;100041.44;10313827;28;20453;-83
2022/04/10 06:48:28;;;;;;;10.40;3.30;;;;;;;19.16;48.92;100084.91;10330693;28;20049;-84
2022/04/10 06:53:29;;;;;;;7.25;3.50;;;;;;;19.69;48.65;100118.28;10330679;28;20054;-86
2022/04/10 06:58:30;;;;;;;9.75;4.00;;;;;;;19.40;48.07;100068.78;10337275;28;20453;-83
2022/04/10 07:03:31;;;;;;;8.27;3.40;;;;;;;19.96;46.92;100107.03;10320698;28;20050;-84
2022/04/10 07:08:37;;;;;;;10.85;3.92;;;;;;;19.34;46.52;99956.59;10339133;28;20030;-84
2022/04/10 07:13:37;;;;;;;7.05;2.72;;;;;;;20.09;45.49;100103.25;10338241;28;20030;-88
2022/04/10 07:18:38;;;;;;;11.10;3.60;;;;;;;19.42;46.00;99991.25;10321914;28;20049;-80
2022/04/10 07:23:43;;;;;;;9.43;3.80;;;;;;;19.89;45.46;100014.66;10337655;28;20039;-80
2022/04/10 07:28:45;;;;;;;12.88;3.47;;;;;;;19.22;44.83;99842.69;10319696;28;20121;-84
2022/04/10 07:33:46;;;;;;;9.70;3.55;;;;;;;20.08;44.53;99956.03;10321497;28;20038;-82
2022/04/10 07:38:47;;;;;;;8.57;3.03;;;;;;;20.60;44.36;100029.59;10337750;28;20418;-81
2022/04/10 07:43:48;;;;;;;6.15;3.22;;;;;;;20.19;43.54;99965.94;10336398;28;20046;-80
2022/04/10 07:48:49;;;;;;;6.45;3.30;;;;;;;20.41;43.85;99942.63;10335740;28;20038;-81
2022/04/10 07:53:53;;;;;;;15.23;3.50;;;;;;;20.41;42.87;99933.72;10336211;28;20104;-79
2022/04/10 07:58:54;;;;;;;8.82;3.28;;;;;;;21.10;42.64;100028.03;10336478;28;20100;-79
2022/04/10 08:03:55;;;;;;;9.02;2.72;;;;;;;21.15;42.57;100010.03;10336541;28;20081;-79
2022/04/10 08:08:56;;;;;;;12.60;3.10;;;;;;;20.41;42.32;99874.34;10351689;28;20026;-81
2022/04/10 08:13:56;;;;;;;15.77;3.45;;;;;;;20.74;42.00;99884.38;10351900;28;20046;-76
2022/04/10 08:18:57;;;;;;;8.15;3.08;;;;;;;21.84;41.50;100011.63;10350658;28;20040;-74
2022/04/10 08:23:58;;;;;;;7.65;3.05;;;;;;;21.97;41.29;99995.00;10351990;28;20046;-75
2022/04/10 08:28:59;;;;;;;8.77;3.00;;;;;;;22.27;41.11;99981.03;10352042;28;20034;-76
2022/04/10 08:33:59;;;;;;;14.10;3.45;;;;;;;21.96;40.78;99965.53;10350220;28;20096;-77
2022/04/10 08:39:01;;;;;;;7.93;2.78;;;;;;;21.61;40.89;99899.13;10350567;28;20045;-75
2022/04/10 08:44:03;;;;;;;9.02;3.00;;;;;;;21.71;40.41;99888.41;10351566;28;20109;-77
2022/04/10 08:49:04;;;;;;;11.45;2.90;;;;;;;22.17;39.25;99934.13;10353521;28;20034;-76
2022/04/10 08:54:06;;;;;;;7.32;2.92;;;;;;;22.14;39.50;99924.59;10351291;28;20169;-75
2022/04/10 08:59:06;;;;;;;9.35;2.72;;;;;;;21.98;39.65;99861.41;10349022;28;20073;-75
2022/04/10 09:04:07;;;;;;;8.45;2.88;;;;;;;21.99;39.14;99851.44;10345957;28;20490;-74
2022/04/10 09:09:17;;;;;;;6.93;2.70;;;;;;;22.47;39.17;99887.63;10333236;28;20034;-76
2022/04/10 09:14:28;;;;;;;8.27;3.20;;;;;;;22.95;38.66;99961.69;10350016;28;20056;-75
2022/04/10 09:19:40;;;;;;;8.75;3.08;;;;;;;22.62;38.54;99852.53;10348880;28;20753;-75
2022/04/10 09:25:00;;;;;;;7.78;2.50;;;;;;;23.29;38.82;99934.28;10350099;28;20121;-75
2022/04/10 09:30:03;;;;;;;7.90;3.17;;;;;;;23.15;38.24;99901.38;10350287;28;20049;-74
2022/04/10 09:35:05;;;;;;;8.20;2.90;;;;;;;22.86;37.86;99898.22;10350764;28;20071;-77
2022/04/10 09:40:28;;;;;;;8.50;2.78;;;;;;;23.09;38.40;99908.66;10348293;28;20057;-74
2022/04/10 09:45:50;;;;;;;8.50;3.08;;;;;;;23.30;38.71;99903.38;10333762;28;20494;-77
2022/04/10 09:50:53;;;;;;;8.98;3.35;;;;;;;23.20;37.42;99896.00;10314298;28;20125;-74
2022/04/10 09:56:07;;;;;;;8.93;3.33;;;;;;;23.37;37.44;99882.28;10337639;28;20101;-76
2022/04/10 10:01:11;;;;;;;7.90;3.13;;;;;;;22.82;37.67;99853.75;10327040;28;20046;-74
2022/04/10 10:06:13;;;;;;;6.88;2.60;;;;;;;23.05;38.22;99820.06;10314230;28;20045;-75
2022/04/10 10:11:14;;;;;;;10.52;2.92;;;;;;;23.51;37.11;99888.03;10332767;28;20042;-75
2022/04/10 10:16:17;;;;;;;7.82;2.60;;;;;;;23.37;37.34;99828.09;10331856;28;20050;-78
2022/04/10 10:21:18;;;;;;;8.70;2.93;;;;;;;23.26;37.11;99807.44;10343195;28;20038;-75
2022/04/10 10:26:38;;;;;;;9.13;2.28;;;;;;;23.92;36.68;99889.81;10341783;28;20285;-78
2022/04/10 10:31:58;;;;;;;10.85;3.38;;;;;;;23.73;36.30;99877.84;10348650;28;20173;-77
2022/04/10 10:37:02;;;;;;;14.90;3.30;;;;;;;23.32;35.21;99814.50;10351217;28;20154;-76
2022/04/10 10:42:11;;;;;;;9.50;2.80;;;;;;;23.97;36.70;99870.06;10353887;28;20077;-79
2022/04/10 10:47:23;;;;;;;10.98;3.10;;;;;;;23.86;36.24;99814.13;10355556;28;20049;-76
2022/04/10 10:52:27;;;;;;;9.90;2.80;;;;;;;23.78;36.55;99818.22;10356022;28;20053;-78
2022/04/10 10:57:42;;;;;;;39.67;4.45;;;;;;;23.75;36.42;99831.47;10377732;28;20049;-81
2022/04/10 11:03:07;;;;;;;18.55;2.85;;;;;;;24.03;35.55;99849.19;10385815;28;20531;-72
2022/04/10 11:08:10;;;;;;;7.82;2.95;;;;;;;23.68;36.04;99758.47;10384208;28;20382;-80
2022/04/10 11:13:14;;;;;;;7.77;3.00;;;;;;;23.72;34.96;99762.31;10352371;28;20082;-83
2022/04/10 11:18:24;;;;;;;7.95;3.20;;;;;;;24.14;35.24;99854.34;10337929;28;20096;-75
2022/04/10 11:23:31;;;;;;;10.55;2.67;;;;;;;23.95;35.58;99836.94;10335453;28;20077;-76
2022/04/10 11:29:00;;;;;;;8.23;2.88;;;;;;;23.54;35.88;99777.16;10377900;28;20042;-77
2022/04/10 11:34:20;;;;;;;10.18;2.72;;;;;;;23.97;36.49;99863.81;10378546;28;20041;-75
2022/04/10 11:39:35;;;;;;;9.25;2.80;;;;;;;23.42;35.16;99776.56;10374536;28;20129;-76
2022/04/10 11:44:42;;;;;;;8.68;2.92;;;;;;;23.48;35.73;99805.31;10360566;28;20555;-76
2022/04/10 11:49:52;;;;;;;13.35;3.05;;;;;;;23.56;35.43;99834.63;10376899;28;20124;-76
2022/04/10 11:54:52;;;;;;;11.70;3.10;;;;;;;22.94;35.12;99699.97;10377156;28;20088;-75
2022/04/10 11:59:53;;;;;;;10.05;4.68;;;;;;;23.57;34.96;99806.47;10375313;28;20119;-77
2022/04/10 12:05:00;;;;;;;10.57;3.13;;;;;;;23.75;35.66;99801.63;10377848;28;20046;-82
2022/04/10 12:10:01;;;;;;;11.43;3.55;;;;;;;23.51;35.24;99755.19;10376606;28;20132;-81
2022/04/10 12:15:23;;;;;;;11.15;3.63;;;;;;;23.90;35.63;99791.66;10375922;28;20125;-81
2022/04/10 12:20:24;;;;;;;8.23;3.22;;;;;;;22.76;35.15;99611.91;10375230;28;20398;-80
2022/04/10 12:25:27;;;;;;;9.05;3.10;;;;;;;23.42;34.58;99739.47;10376165;28;20041;-83
2022/04/10 12:30:28;;;;;;;10.67;2.97;;;;;;;23.19;35.72;99689.28;10375908;28;20382;-81
2022/04/10 12:35:39;;;;;;;10.43;2.83;;;;;;;23.12;35.10;99677.03;10375451;28;20046;-82
2022/04/10 12:40:41;;;;;;;8.82;2.75;;;;;;;23.54;35.78;99760.06;10375816;28;20041;-83
2022/04/10 12:45:44;;;;;;;10.30;2.93;;;;;;;23.45;34.60;99754.34;10375468;28;20050;-81
2022/04/10 12:50:45;;;;;;;6.55;3.08;;;;;;;23.09;34.90;99740.69;10374875;28;20083;-82
2022/04/10 12:55:46;;;;;;;13.18;3.10;;;;;;;22.25;35.42;99609.81;10371597;28;20477;-83
2022/04/10 13:00:47;;;;;;;9.85;5.38;;;;;;;22.72;34.52;99694.75;10368343;28;20046;-81
2022/04/10 13:06:00;;;;;;;10.10;3.78;;;;;;;22.54;35.22;99685.19;10343256;28;20050;-79
2022/04/10 13:11:06;;;;;;;13.77;3.47;;;;;;;22.66;36.10;99756.19;10368103;28;20053;-83
2022/04/10 13:16:10;;;;;;;12.57;3.05;;;;;;;22.20;35.59;99693.66;10375340;28;20042;-82
2022/04/10 13:21:11;;;;;;;7.50;2.42;;;;;;;22.36;35.78;99758.69;10373447;28;20092;-82
2022/04/10 13:26:29;;;;;;;9.40;3.38;;;;;;;21.65;36.65;99714.53;10375063;28;20100;-82
2022/04/10 13:31:30;;;;;;;57.25;31.85;;;;;;;21.74;37.45;99766.25;10374323;28;20160;-82
2022/04/10 13:36:33;;;;;;;13.10;4.97;;;;;;;21.96;36.90;99797.84;10355901;28;20070;-85
2022/04/10 13:41:34;;;;;;;21.52;11.32;;;;;;;22.05;37.40;99802.53;10347342;28;20502;-85
2022/04/10 13:46:36;;;;;;;18.65;8.68;;;;;;;20.62;37.21;99594.88;10346983;28;20053;-85
2022/04/10 13:51:37;;;;;;;15.63;4.30;;;;;;;21.23;37.20;99671.13;10366932;28;20137;-83
2022/04/10 13:56:38;;;;;;;11.98;3.25;;;;;;;22.11;37.05;99790.69;10373477;28;20148;-83
2022/04/10 14:01:38;;;;;;;12.63;4.07;;;;;;;21.22;37.06;99669.53;10373645;28;20080;-83
2022/04/10 14:06:39;;;;;;;19.02;3.15;;;;;;;21.78;37.61;99813.34;10371431;28;20041;-86
2022/04/10 14:11:40;;;;;;;8.10;3.33;;;;;;;21.72;38.23;99827.06;10372117;28;20045;-84
2022/04/10 14:16:41;;;;;;;8.98;3.33;;;;;;;20.62;37.79;99667.75;10371882;28;20502;-84
2022/04/10 14:21:42;;;;;;;12.13;4.40;;;;;;;20.73;38.44;99713.50;10372967;28;20062;-84
2022/04/10 14:26:43;;;;;;;136.23;122.38;;;;;;;20.52;38.58;99717.81;10372568;28;20038;-84
2022/04/10 14:31:46;;;;;;;11.82;7.00;;;;;;;20.90;38.99;99790.91;10373247;28;20061;-84
2022/04/10 14:36:48;;;;;;;10.80;3.93;;;;;;;20.19;39.65;99715.13;10352006;28;20104;-86
2022/04/10 14:41:49;;;;;;;9.30;3.20;;;;;;;19.79;40.02;99684.56;10363755;28;20281;-86
2022/04/10 14:46:49;;;;;;;11.60;2.72;;;;;;;20.03;40.29;99760.72;10331231;28;20406;-84
2022/04/10 14:51:50;;;;;;;7.93;3.00;;;;;;;20.01;40.63;99778.19;10363463;28;20486;-85
2022/04/10 14:56:51;;;;;;;14.88;3.78;;;;;;;19.73;40.91;99760.19;10331154;28;20097;-85
2022/04/10 15:01:52;;;;;;;10.38;2.45;;;;;;;19.81;41.52;99811.84;10330821;28;20050;-83
2022/04/10 15:06:53;;;;;;;6.22;2.55;;;;;;;18.74;42.17;99652.75;10331465;28;20038;-84
2022/04/10 15:11:54;;;;;;;10.98;3.17;;;;;;;19.29;42.68;99774.16;10330160;28;20039;-85
2022/04/10 15:16:55;;;;;;;26.02;15.02;;;;;;;19.42;43.01;99824.25;10332467;28;20050;-84
2022/04/10 15:21:55;;;;;;;235.63;114.57;;;;;;;18.57;43.49;99727.94;10338180;28;20042;-83
2022/04/10 15:26:56;;;;;;;195.40;97.10;;;;;;;18.75;44.28;99778.13;10336216;28;20042;-86
2022/04/10 15:31:57;;;;;;;131.60;58.50;;;;;;;17.95;44.78;99696.16;10332596;28;20100;-85
2022/04/10 15:36:58;;;;;;;163.63;68.78;;;;;;;18.57;45.21;99827.47;10334354;28;20065;-83
2022/04/10 15:41:59;;;;;;;41.92;18.77;;;;;;;17.04;45.54;99630.97;10355549;28;20486;-84
2022/04/10 15:47:00;;;;;;;81.72;29.25;;;;;;;17.52;46.09;99762.44;10360900;28;20054;-84
2022/04/10 15:52:01;;;;;;;40.17;13.52;;;;;;;17.83;46.73;99843.91;10342377;28;20581;-84
2022/04/10 15:57:02;;;;;;;22.00;9.98;;;;;;;17.63;47.36;99836.06;10347884;28;20171;-85
2022/04/10 16:02:03;;;;;;;59.58;40.17;;;;;;;17.27;47.75;99818.16;10348261;28;20597;-86
2022/04/10 16:07:04;;;;;;;450.48;311.83;;;;;;;17.25;47.99;99834.47;10350702;28;20050;-85
2022/04/10 16:12:05;;;;;;;639.22;366.17;;;;;;;16.83;47.75;99796.72;10351903;28;20136;-87
2022/04/10 16:17:06;;;;;;;1026.15;671.53;;;;;;;16.50;48.02;99782.81;10359907;28;20494;-85
2022/04/10 16:22:07;;;;;;;1242.88;735.47;;;;;;;16.51;48.12;99820.13;10353898;28;20042;-83
2022/04/10 16:32:27;;;;;;;77.57;36.30;;;;;;;15.77;48.76;99780.69;10354463;28;20547;-82
2022/04/10 16:37:28;;;;;;;270.15;142.55;;;;;;;16.17;48.91;99881.19;10354853;28;20064;-86
2022/04/10 16:42:29;;;;;;;56.95;27.35;;;;;;;15.37;49.13;99779.00;10354940;28;20052;-83
2022/04/10 16:47:32;;;;;;;174.73;67.13;;;;;;;15.10;49.57;99750.72;10354468;28;20462;-82
2022/04/10 16:52:32;;;;;;;138.48;63.35;;;;;;;15.50;49.66;99842.38;10351131;28;20073;-84
2022/04/10 16:57:39;;;;;;;29.20;14.70;;;;;;;15.50;50.26;99866.47;10347959;28;20141;-84
2022/04/10 17:02:41;;;;;;;60.97;34.17;;;;;;;15.53;50.66;99882.91;10350952;28;20391;-84
2022/04/10 17:07:42;;;;;;;21.58;11.63;;;;;;;15.01;50.88;99798.28;10349438;28;20038;-85
2022/04/10 17:12:43;;;;;;;17.65;6.35;;;;;;;15.60;51.25;99882.06;10352024;28;20042;-83
2022/04/10 17:17:44;;;;;;;15.93;6.82;;;;;;;15.00;51.72;99805.47;10344172;28;20406;-81
2022/04/10 17:22:45;;;;;;;21.63;5.97;;;;;;;15.59;52.18;99908.03;10332970;28;20053;-83
2022/04/10 17:27:47;;;;;;;21.05;7.63;;;;;;;15.44;53.01;99883.38;10333259;28;20069;-83
2022/04/10 17:32:48;;;;;;;16.50;6.55;;;;;;;15.11;52.98;99848.69;10332476;28;20046;-83
2022/04/10 17:37:49;;;;;;;14.02;5.15;;;;;;;14.04;53.50;99687.63;10331629;28;20410;-81
2022/04/10 17:42:49;;;;;;;16.42;6.25;;;;;;;14.95;54.00;99853.44;10331522;28;20050;-82
2022/04/10 17:47:50;;;;;;;19.77;6.47;;;;;;;14.38;54.42;99774.69;10331988;28;20042;-81
2022/04/10 17:52:51;;;;;;;21.35;6.45;;;;;;;14.94;55.16;99875.03;10326568;28;20457;-81
2022/04/10 17:57:53;;;;;;;22.73;8.23;;;;;;;14.84;55.45;99873.63;10325757;28;20046;-82
2022/04/10 18:02:54;;;;;;;22.25;6.57;;;;;;;14.21;56.37;99786.81;10325111;28;20074;-85
2022/04/10 18:07:55;;;;;;;24.23;8.98;;;;;;;14.67;56.61;99874.25;10326133;28;20125;-83
2022/04/10 18:12:56;;;;;;;35.30;12.45;;;;;;;13.41;56.88;99685.31;10325166;28;20133;-82
2022/04/10 18:17:57;;;;;;;30.17;10.65;;;;;;;14.24;57.54;99843.38;10325790;28;20042;-81
2022/04/10 18:23:03;;;;;;;20.42;9.57;;;;;;;14.21;58.11;99845.59;10325491;28;20494;-79
2022/04/10 18:28:04;;;;;;;30.58;13.02;;;;;;;13.80;58.46;99818.00;10324994;28;20406;-81
2022/04/10 18:33:09;;;;;;;29.95;13.93;;;;;;;14.22;59.53;99895.34;10325657;28;20050;-82
2022/04/10 18:38:10;;;;;;;33.72;12.82;;;;;;;13.91;59.76;99860.16;10324385;28;20049;-82
2022/04/10 18:43:11;;;;;;;41.95;15.57;;;;;;;13.74;60.48;99850.03;10323277;28;20506;-81
2022/04/10 18:48:13;;;;;;;31.83;12.23;;;;;;;13.65;61.37;99860.88;10325938;28;20070;-80
2022/04/10 18:53:15;;;;;;;33.90;10.70;;;;;;;12.85;61.46;99754.81;10351219;28;20081;-83
2022/04/10 18:58:17;;;;;;;29.40;10.15;;;;;;;13.70;62.30;99905.66;10375886;28;20046;-83
2022/04/10 19:03:19;;;;;;;40.30;11.27;;;;;;;13.23;63.24;99824.56;10379253;28;20476;-81
2022/04/10 19:08:20;;;;;;;32.95;9.60;;;;;;;13.55;63.44;99897.81;10378942;28;20408;-81
2022/04/10 19:13:21;;;;;;;38.20;11.13;;;;;;;13.41;64.20;99896.91;10379860;28;20041;-80
2022/04/10 19:18:22;;;;;;;38.75;9.85;;;;;;;12.70;64.58;99817.06;10378624;28;20096;-82
2022/04/10 19:23:24;;;;;;;28.52;9.27;;;;;;;12.40;65.46;99786.31;10378096;28;20453;-81
2022/04/10 19:28:26;;;;;;;44.25;8.88;;;;;;;12.94;66.29;99910.94;10377589;28;20046;-84
2022/04/10 19:33:26;;;;;;;28.30;8.02;;;;;;;12.09;66.93;99792.81;10378310;28;20132;-79
2022/04/10 19:38:27;;;;;;;36.22;9.23;;;;;;;11.55;67.30;99706.31;10378001;28;20037;-80
2022/04/10 19:43:28;;;;;;;30.67;8.27;;;;;;;11.28;67.71;99668.00;10378223;28;20069;-80
2022/04/10 19:48:30;;;;;;;37.65;8.95;;;;;;;12.17;68.37;99827.28;10376924;28;20037;-80
2022/04/10 19:53:39;;;;;;;28.90;7.57;;;;;;;12.34;68.40;99879.28;10359822;28;20061;-80
2022/04/10 19:58:42;;;;;;;45.67;8.95;;;;;;;12.19;68.33;99870.53;10377293;28;20096;-79
2022/04/10 20:03:44;;;;;;;29.08;9.52;;;;;;;12.28;69.04;99904.00;10374421;28;20033;-81
2022/04/10 20:08:45;;;;;;;34.60;9.07;;;;;;;10.91;69.25;99679.63;10376233;28;20049;-80
2022/04/10 20:13:46;;;;;;;28.90;7.45;;;;;;;11.86;68.92;99849.72;10375554;28;20042;-81
2022/04/10 20:18:47;;;;;;;33.22;8.90;;;;;;;11.42;69.30;99786.75;10375905;28;20409;-81
2022/04/10 20:23:48;;;;;;;27.67;8.07;;;;;;;11.73;69.73;99851.41;10376255;28;20037;-81
2022/04/10 20:28:50;;;;;;;36.65;10.65;;;;;;;11.66;69.63;99825.50;10376318;28;20042;-81
2022/04/10 20:33:50;;;;;;;41.03;9.43;;;;;;;11.74;69.58;99829.09;10375758;28;20045;-81
2022/04/10 20:38:51;;;;;;;49.65;12.93;;;;;;;12.13;69.45;99886.44;10358132;28;20168;-81
2022/04/10 20:43:52;;;;;;;39.20;8.10;;;;;;;11.84;69.80;99846.38;10376450;28;20046;-82
2022/04/10 20:48:53;;;;;;;27.80;6.68;;;;;;;11.80;70.07;99863.75;10373905;28;20497;-81
2022/04/10 20:53:53;;;;;;;30.33;6.28;;;;;;;11.29;70.36;99765.34;10374327;28;20096;-81
2022/04/10 20:58:54;;;;;;;32.17;8.82;;;;;;;12.06;69.95;99884.53;10374917;28;20070;-81
2022/04/10 21:03:55;;;;;;;36.55;9.90;;;;;;;11.86;70.49;99870.19;10374448;28;20046;-82
2022/04/10 21:08:57;;;;;;;43.95;11.77;;;;;;;11.62;70.31;99831.41;10374491;28;20498;-80
2022/04/10 21:13:58;;;;;;;35.10;7.50;;;;;;;10.88;71.14;99757.06;10371939;28;20038;-81
2022/04/10 21:19:00;;;;;;;37.53;7.57;;;;;;;11.58;71.52;99900.13;10374077;28;20046;-81
2022/04/10 21:24:00;;;;;;;24.13;6.80;;;;;;;11.38;71.89;99859.97;10374611;28;20053;-80
2022/04/10 21:29:01;;;;;;;41.30;7.75;;;;;;;11.43;71.99;99894.00;10374046;28;20033;-81
2022/04/10 21:34:03;;;;;;;25.60;6.07;;;;;;;11.30;72.24;99878.66;10374205;28;20046;-81
2022/04/10 21:39:04;;;;;;;45.22;13.65;;;;;;;10.16;72.51;99704.53;10373448;28;20048;-81
2022/04/10 21:44:05;;;;;;;28.50;7.38;;;;;;;10.28;72.92;99724.34;10373852;28;20081;-81
2022/04/10 21:49:06;;;;;;;24.80;6.22;;;;;;;10.81;73.46;99849.97;10372812;28;20399;-81
2022/04/10 21:54:07;;;;;;;33.72;8.32;;;;;;;10.14;73.59;99771.06;10354891;28;20058;-81
2022/04/10 21:59:08;;;;;;;36.30;8.35;;;;;;;10.33;74.14;99817.56;10373300;28;20045;-81
2022/04/10 22:04:08;;;;;;;31.60;7.47;;;;;;;9.53;74.13;99691.47;10372554;28;20095;-81
2022/04/10 22:09:09;;;;;;;48.28;13.73;;;;;;;10.25;74.35;99793.69;10354480;28;20038;-83
2022/04/10 22:14:10;;;;;;;35.45;8.55;;;;;;;10.14;74.66;99775.53;10373507;28;20038;-82
2022/04/10 22:19:11;;;;;;;32.55;6.35;;;;;;;9.68;74.91;99722.53;10372309;28;20049;-81
2022/04/10 22:24:12;;;;;;;48.78;13.70;;;;;;;10.30;75.25;99815.25;10354823;28;20548;-81
2022/04/10 22:29:13;;;;;;;33.92;7.97;;;;;;;9.92;75.72;99762.13;10378434;28;20038;-81
2022/04/10 22:34:14;;;;;;;35.85;8.15;;;;;;;9.85;76.31;99753.22;10380342;28;20409;-82
2022/04/10 22:39:14;;;;;;;46.70;11.27;;;;;;;9.67;76.06;99742.09;10362111;28;20133;-82
2022/04/10 22:44:15;;;;;;;44.83;11.40;;;;;;;9.18;77.44;99715.88;10379507;28;20056;-81
2022/04/10 22:49:16;;;;;;;38.28;10.75;;;;;;;9.22;79.42;99767.56;10362494;28;20084;-81
2022/04/10 22:54:17;;;;;;;52.00;9.70;;;;;;;8.97;80.45;99746.44;10376679;28;20092;-83
2022/04/10 22:59:18;;;;;;;51.65;10.05;;;;;;;9.21;80.45;99779.13;10379392;28;20140;-82
2022/04/10 23:04:19;;;;;;;34.05;7.82;;;;;;;9.33;80.78;99815.69;10379281;28;20046;-81
2022/04/10 23:09:20;;;;;;;34.05;5.95;;;;;;;8.02;80.34;99611.44;10378697;28;20061;-81